sensor_id;sensor_type;location;lat;lon;timestamp;pressure;altitude;pressure_sealevel;temperature;humidity
13968;BME280;39536;52.198;9.920;2023-07-29T00:01:55;99895.00;;;21.92;100.00
13968;BME280;39536;52.198;9.920;2023-07-29T00:04:21;99894.59;;;21.87;100.00
13968;BME280;39536;52.198;9.920;2023-07-29T00:06:49;99894.44;;;21.99;100.00
13968;BME280;39536;52.198;9.920;2023-07-29T00:09:16;99896.97;;;22.00;100.00
13968;BME280;39536;52.198;9.920;2023-07-29T00:11:43;99895.16;;;22.01;100.00
13968;BME280;39536;52.198;9.920;2023-07-29T00:14:09;99899.75;;;21.99;100.00
13968;BME280;39536;52.198;9.920;2023-07-29T00:16:36;99907.03;;;21.97;100.00
13968;BME280;39536;52.198;9.920;2023-07-29T00:19:03;99902.69;;;21.96;100.00
13968;BME280;39536;52.198;9.920;2023-07-29T00:21:29;99910.63;;;21.96;100.00
13968;BME280;39536;52.198;9.920;2023-07-29T00:23:57;99902.28;;;21.90;100.00
13968;BME280;39536;52.198;9.920;2023-07-29T00:26:26;99906.88;;;21.88;100.00
13968;BME280;39536;52.198;9.920;2023-07-29T00:28:54;99907.16;;;21.85;100.00
13968;BME280;39536;52.198;9.920;2023-07-29T00:31:20;99903.66;;;21.85;100.00
13968;BME280;39536;52.198;9.920;2023-07-29T00:33:47;99904.78;;;21.82;100.00
13968;BME280;39536;52.198;9.920;2023-07-29T00:36:14;99899.63;;;21.81;100.00
13968;BME280;39536;52.198;9.920;2023-07-29T00:38:40;99901.56;;;21.79;100.00
13968;BME280;39536;52.198;9.920;2023-07-29T00:41:09;99903.94;;;21.82;100.00
13968;BME280;39536;52.198;9.920;2023-07-29T00:43:38;99911.06;;;21.81;100.00
13968;BME280;39536;52.198;9.920;2023-07-29T00:46:05;99905.06;;;21.79;100.00
13968;BME280;39536;52.198;9.920;2023-07-29T00:48:33;99898.47;;;21.74;100.00
13968;BME280;39536;52.198;9.920;2023-07-29T00:51:00;99893.06;;;21.75;100.00
13968;BME280;39536;52.198;9.920;2023-07-29T00:53:26;99895.72;;;21.75;100.00
13968;BME280;39536;52.198;9.920;2023-07-29T00:55:53;99893.31;;;21.72;100.00
13968;BME280;39536;52.198;9.920;2023-07-29T00:58:21;99891.06;;;21.67;100.00
13968;BME280;39536;52.198;9.920;2023-07-29T01:00:48;99888.00;;;21.62;100.00
13968;BME280;39536;52.198;9.920;2023-07-29T01:03:17;99892.88;;;21.57;100.00
13968;BME280;39536;52.198;9.920;2023-07-29T01:05:50;99888.84;;;21.53;100.00
13968;BME280;39536;52.198;9.920;2023-07-29T01:08:25;99882.25;;;21.38;100.00
13968;BME280;39536;52.198;9.920;2023-07-29T01:11:02;99884.28;;;21.34;100.00
13968;BME280;39536;52.198;9.920;2023-07-29T01:13:37;99880.94;;;21.32;100.00
13968;BME280;39536;52.198;9.920;2023-07-29T01:16:11;99883.00;;;21.29;100.00
13968;BME280;39536;52.198;9.920;2023-07-29T01:18:41;99879.38;;;21.30;100.00
13968;BME280;39536;52.198;9.920;2023-07-29T01:21:11;99877.84;;;21.27;100.00
13968;BME280;39536;52.198;9.920;2023-07-29T01:23:40;99884.53;;;21.21;100.00
13968;BME280;39536;52.198;9.920;2023-07-29T01:26:06;99875.31;;;21.16;100.00
13968;BME280;39536;52.198;9.920;2023-07-29T01:28:33;99880.44;;;21.08;100.00
13968;BME280;39536;52.198;9.920;2023-07-29T01:31:04;99876.78;;;21.09;100.00
13968;BME280;39536;52.198;9.920;2023-07-29T01:33:38;99870.81;;;21.07;100.00
13968;BME280;39536;52.198;9.920;2023-07-29T01:36:27;99868.41;;;20.94;100.00
13968;BME280;39536;52.198;9.920;2023-07-29T01:38:56;99865.47;;;20.97;100.00
13968;BME280;39536;52.198;9.920;2023-07-29T01:41:24;99869.38;;;21.03;100.00
13968;BME280;39536;52.198;9.920;2023-07-29T01:43:52;99873.84;;;21.02;100.00
13968;BME280;39536;52.198;9.920;2023-07-29T01:46:19;99875.81;;;21.00;100.00
13968;BME280;39536;52.198;9.920;2023-07-29T01:48:45;99876.63;;;21.01;100.00
13968;BME280;39536;52.198;9.920;2023-07-29T01:51:12;99876.38;;;21.04;100.00
13968;BME280;39536;52.198;9.920;2023-07-29T01:53:39;99871.19;;;21.02;100.00
13968;BME280;39536;52.198;9.920;2023-07-29T01:56:07;99865.78;;;21.04;100.00
13968;BME280;39536;52.198;9.920;2023-07-29T01:58:34;99862.31;;;21.03;100.00
13968;BME280;39536;52.198;9.920;2023-07-29T02:01:00;99861.44;;;21.03;100.00
13968;BME280;39536;52.198;9.920;2023-07-29T02:03:27;99869.25;;;21.04;100.00
13968;BME280;39536;52.198;9.920;2023-07-29T02:05:54;99865.06;;;21.02;100.00
13968;BME280;39536;52.198;9.920;2023-07-29T02:08:20;99865.91;;;21.02;100.00
13968;BME280;39536;52.198;9.920;2023-07-29T02:10:47;99863.13;;;21.04;100.00
13968;BME280;39536;52.198;9.920;2023-07-29T02:13:15;99854.22;;;21.05;100.00
13968;BME280;39536;52.198;9.920;2023-07-29T02:15:42;99850.16;;;21.01;100.00
13968;BME280;39536;52.198;9.920;2023-07-29T02:18:09;99843.44;;;20.96;100.00
13968;BME280;39536;52.198;9.920;2023-07-29T02:20:36;99841.25;;;21.02;100.00
13968;BME280;39536;52.198;9.920;2023-07-29T02:23:02;99843.63;;;21.05;100.00
13968;BME280;39536;52.198;9.920;2023-07-29T02:25:30;99845.72;;;21.11;100.00
13968;BME280;39536;52.198;9.920;2023-07-29T02:27:56;99842.25;;;21.10;100.00
13968;BME280;39536;52.198;9.920;2023-07-29T02:30:24;99840.13;;;21.04;100.00
13968;BME280;39536;52.198;9.920;2023-07-29T02:32:51;99841.94;;;21.04;100.00
13968;BME280;39536;52.198;9.920;2023-07-29T02:35:18;99834.28;;;21.01;100.00
13968;BME280;39536;52.198;9.920;2023-07-29T02:37:44;99831.34;;;21.04;100.00
13968;BME280;39536;52.198;9.920;2023-07-29T02:40:11;99832.31;;;21.03;100.00
13968;BME280;39536;52.198;9.920;2023-07-29T02:42:38;99832.19;;;21.04;100.00
13968;BME280;39536;52.198;9.920;2023-07-29T02:45:05;99834.56;;;21.07;100.00
13968;BME280;39536;52.198;9.920;2023-07-29T02:47:36;99839.31;;;21.13;100.00
13968;BME280;39536;52.198;9.920;2023-07-29T02:50:03;99842.53;;;21.17;100.00
13968;BME280;39536;52.198;9.920;2023-07-29T02:52:30;99843.66;;;21.14;100.00
13968;BME280;39536;52.198;9.920;2023-07-29T02:54:57;99840.44;;;21.11;100.00
13968;BME280;39536;52.198;9.920;2023-07-29T02:57:23;99838.47;;;21.03;100.00
13968;BME280;39536;52.198;9.920;2023-07-29T02:59:50;99840.25;;;21.03;100.00
13968;BME280;39536;52.198;9.920;2023-07-29T03:02:17;99841.25;;;21.02;100.00
13968;BME280;39536;52.198;9.920;2023-07-29T03:04:45;99839.56;;;21.01;100.00
13968;BME280;39536;52.198;9.920;2023-07-29T03:07:11;99839.56;;;21.01;100.00
13968;BME280;39536;52.198;9.920;2023-07-29T03:09:39;99845.81;;;20.99;100.00
13968;BME280;39536;52.198;9.920;2023-07-29T03:12:07;99843.72;;;20.93;100.00
13968;BME280;39536;52.198;9.920;2023-07-29T03:14:34;99845.53;;;20.93;100.00
13968;BME280;39536;52.198;9.920;2023-07-29T03:17:02;99846.72;;;20.79;100.00
13968;BME280;39536;52.198;9.920;2023-07-29T03:19:29;99840.72;;;20.77;100.00
13968;BME280;39536;52.198;9.920;2023-07-29T03:21:57;99832.81;;;20.87;100.00
13968;BME280;39536;52.198;9.920;2023-07-29T03:24:24;99833.94;;;20.84;100.00
13968;BME280;39536;52.198;9.920;2023-07-29T03:26:50;99831.31;;;20.94;100.00
13968;BME280;39536;52.198;9.920;2023-07-29T03:29:17;99825.19;;;20.93;100.00
13968;BME280;39536;52.198;9.920;2023-07-29T03:31:44;99828.78;;;20.92;100.00
13968;BME280;39536;52.198;9.920;2023-07-29T03:34:10;99825.34;;;21.02;100.00
13968;BME280;39536;52.198;9.920;2023-07-29T03:36:37;99819.94;;;21.03;100.00
13968;BME280;39536;52.198;9.920;2023-07-29T03:39:06;99826.44;;;20.99;100.00
13968;BME280;39536;52.198;9.920;2023-07-29T03:41:33;99836.38;;;21.07;100.00
13968;BME280;39536;52.198;9.920;2023-07-29T03:43:59;99838.63;;;21.11;100.00
13968;BME280;39536;52.198;9.920;2023-07-29T03:46:26;99841.00;;;21.14;100.00
13968;BME280;39536;52.198;9.920;2023-07-29T03:48:53;99835.69;;;21.14;100.00
13968;BME280;39536;52.198;9.920;2023-07-29T03:51:19;99841.72;;;21.16;100.00
13968;BME280;39536;52.198;9.920;2023-07-29T03:53:47;99833.19;;;21.13;100.00
13968;BME280;39536;52.198;9.920;2023-07-29T03:56:15;99829.84;;;21.11;100.00
13968;BME280;39536;52.198;9.920;2023-07-29T03:58:42;99830.94;;;21.08;100.00
13968;BME280;39536;52.198;9.920;2023-07-29T04:01:09;99820.22;;;21.10;100.00
13968;BME280;39536;52.198;9.920;2023-07-29T04:03:35;99816.75;;;21.09;100.00
13968;BME280;39536;52.198;9.920;2023-07-29T04:06:02;99817.16;;;21.14;100.00
13968;BME280;39536;52.198;9.920;2023-07-29T04:08:29;99812.31;;;21.19;100.00
13968;BME280;39536;52.198;9.920;2023-07-29T04:10:56;99811.31;;;21.20;100.00
13968;BME280;39536;52.198;9.920;2023-07-29T04:13:24;99806.72;;;21.22;100.00
13968;BME280;39536;52.198;9.920;2023-07-29T04:15:50;99807.84;;;21.20;100.00
13968;BME280;39536;52.198;9.920;2023-07-29T04:18:17;99811.19;;;21.22;100.00
13968;BME280;39536;52.198;9.920;2023-07-29T04:20:43;99804.19;;;21.21;100.00
13968;BME280;39536;52.198;9.920;2023-07-29T04:23:10;99801.44;;;21.22;100.00
13968;BME280;39536;52.198;9.920;2023-07-29T04:25:37;99800.16;;;21.17;100.00
13968;BME280;39536;52.198;9.920;2023-07-29T04:28:07;99804.34;;;21.19;100.00
13968;BME280;39536;52.198;9.920;2023-07-29T04:30:39;99797.50;;;21.17;100.00
13968;BME280;39536;52.198;9.920;2023-07-29T04:33:06;99795.41;;;21.11;100.00
13968;BME280;39536;52.198;9.920;2023-07-29T04:35:32;99803.19;;;21.03;100.00
13968;BME280;39536;52.198;9.920;2023-07-29T04:37:59;99796.50;;;20.98;100.00
13968;BME280;39536;52.198;9.920;2023-07-29T04:40:26;99792.28;;;20.96;100.00
13968;BME280;39536;52.198;9.920;2023-07-29T04:42:52;99785.47;;;20.93;100.00
13968;BME280;39536;52.198;9.920;2023-07-29T04:45:19;99791.63;;;20.94;100.00
13968;BME280;39536;52.198;9.920;2023-07-29T04:47:47;99787.97;;;20.95;100.00
13968;BME280;39536;52.198;9.920;2023-07-29T04:50:13;99791.72;;;20.92;100.00
13968;BME280;39536;52.198;9.920;2023-07-29T04:52:40;99793.69;;;20.90;100.00
13968;BME280;39536;52.198;9.920;2023-07-29T04:55:07;99793.09;;;20.87;100.00
13968;BME280;39536;52.198;9.920;2023-07-29T04:57:34;99799.00;;;20.90;100.00
13968;BME280;39536;52.198;9.920;2023-07-29T05:00:01;99786.59;;;20.91;100.00
13968;BME280;39536;52.198;9.920;2023-07-29T05:02:28;99789.91;;;20.93;100.00
13968;BME280;39536;52.198;9.920;2023-07-29T05:04:56;99789.09;;;20.92;100.00
13968;BME280;39536;52.198;9.920;2023-07-29T05:07:23;99786.31;;;20.94;100.00
13968;BME280;39536;52.198;9.920;2023-07-29T05:09:49;99783.25;;;20.98;100.00
13968;BME280;39536;52.198;9.920;2023-07-29T05:12:15;99782.41;;;20.98;100.00
13968;BME280;39536;52.198;9.920;2023-07-29T05:14:42;99789.94;;;21.03;100.00
13968;BME280;39536;52.198;9.920;2023-07-29T05:17:08;99791.22;;;21.08;100.00
13968;BME280;39536;52.198;9.920;2023-07-29T05:19:35;99787.47;;;21.11;100.00
13968;BME280;39536;52.198;9.920;2023-07-29T05:22:03;99781.19;;;21.12;100.00
13968;BME280;39536;52.198;9.920;2023-07-29T05:24:30;99776.75;;;21.12;100.00
13968;BME280;39536;52.198;9.920;2023-07-29T05:26:57;99787.91;;;21.16;100.00
13968;BME280;39536;52.198;9.920;2023-07-29T05:29:23;99787.91;;;21.16;100.00
13968;BME280;39536;52.198;9.920;2023-07-29T05:31:50;99779.53;;;21.20;100.00
13968;BME280;39536;52.198;9.920;2023-07-29T05:34:16;99786.53;;;21.21;100.00
13968;BME280;39536;52.198;9.920;2023-07-29T05:36:43;99783.88;;;21.21;100.00
13968;BME280;39536;52.198;9.920;2023-07-29T05:39:11;99783.59;;;21.25;100.00
13968;BME280;39536;52.198;9.920;2023-07-29T05:41:38;99789.72;;;21.25;100.00
13968;BME280;39536;52.198;9.920;2023-07-29T05:44:05;99788.75;;;21.26;100.00
13968;BME280;39536;52.198;9.920;2023-07-29T05:46:31;99797.69;;;21.25;100.00
13968;BME280;39536;52.198;9.920;2023-07-29T05:48:58;99793.59;;;21.21;100.00
13968;BME280;39536;52.198;9.920;2023-07-29T05:51:24;99795.84;;;21.16;100.00
13968;BME280;39536;52.198;9.920;2023-07-29T05:53:51;99792.50;;;21.14;100.00
13968;BME280;39536;52.198;9.920;2023-07-29T05:56:19;99800.59;;;21.12;100.00
13968;BME280;39536;52.198;9.920;2023-07-29T05:58:46;99792.50;;;21.14;100.00
13968;BME280;39536;52.198;9.920;2023-07-29T06:01:13;99792.22;;;21.17;100.00
13968;BME280;39536;52.198;9.920;2023-07-29T06:03:39;99788.31;;;21.21;100.00
13968;BME280;39536;52.198;9.920;2023-07-29T06:06:06;99773.41;;;21.20;100.00
13968;BME280;39536;52.198;9.920;2023-07-29T06:08:33;99771.03;;;21.17;100.00
13968;BME280;39536;52.198;9.920;2023-07-29T06:10:59;99762.38;;;21.15;100.00
13968;BME280;39536;52.198;9.920;2023-07-29T06:13:27;99765.00;;;21.15;100.00
13968;BME280;39536;52.198;9.920;2023-07-29T06:15:54;99767.66;;;21.15;100.00
13968;BME280;39536;52.198;9.920;2023-07-29T06:18:21;99770.44;;;21.04;100.00
13968;BME280;39536;52.198;9.920;2023-07-29T06:20:47;99779.63;;;20.99;100.00
13968;BME280;39536;52.198;9.920;2023-07-29T06:23:14;99771.09;;;20.96;100.00
13968;BME280;39536;52.198;9.920;2023-07-29T06:25:41;99769.88;;;20.90;100.00
13968;BME280;39536;52.198;9.920;2023-07-29T06:28:08;99757.84;;;20.86;100.00
13968;BME280;39536;52.198;9.920;2023-07-29T06:30:36;99779.84;;;20.87;100.00
13968;BME280;39536;52.198;9.920;2023-07-29T06:33:03;99794.91;;;20.86;100.00
13968;BME280;39536;52.198;9.920;2023-07-29T06:35:30;99789.88;;;20.83;100.00
13968;BME280;39536;52.198;9.920;2023-07-29T06:37:57;99794.63;;;20.80;100.00
13968;BME280;39536;52.198;9.920;2023-07-29T06:40:24;99795.97;;;20.74;100.00
13968;BME280;39536;52.198;9.920;2023-07-29T06:42:51;99800.75;;;20.80;100.00
13968;BME280;39536;52.198;9.920;2023-07-29T06:45:18;99796.34;;;20.90;100.00
13968;BME280;39536;52.198;9.920;2023-07-29T06:47:46;99793.84;;;20.98;100.00
13968;BME280;39536;52.198;9.920;2023-07-29T06:50:13;99792.75;;;21.01;100.00
13968;BME280;39536;52.198;9.920;2023-07-29T06:52:39;99789.72;;;21.15;100.00
13968;BME280;39536;52.198;9.920;2023-07-29T06:55:06;99799.88;;;21.20;100.00
13968;BME280;39536;52.198;9.920;2023-07-29T06:57:33;99802.00;;;21.26;100.00
13968;BME280;39536;52.198;9.920;2023-07-29T07:00:00;99800.34;;;21.35;100.00
13968;BME280;39536;52.198;9.920;2023-07-29T07:02:26;99799.91;;;21.30;100.00
13968;BME280;39536;52.198;9.920;2023-07-29T07:04:55;99805.25;;;21.39;100.00
13968;BME280;39536;52.198;9.920;2023-07-29T07:07:22;99800.34;;;21.35;100.00
13968;BME280;39536;52.198;9.920;2023-07-29T07:09:48;99797.06;;;21.12;100.00
13968;BME280;39536;52.198;9.920;2023-07-29T07:12:15;99798.63;;;21.24;100.00
13968;BME280;39536;52.198;9.920;2023-07-29T07:14:41;99796.16;;;21.32;100.00
13968;BME280;39536;52.198;9.920;2023-07-29T07:17:08;99799.06;;;21.29;100.00
13968;BME280;39536;52.198;9.920;2023-07-29T07:19:35;99801.44;;;21.32;100.00
13968;BME280;39536;52.198;9.920;2023-07-29T07:22:03;99805.13;;;21.41;100.00
13968;BME280;39536;52.198;9.920;2023-07-29T07:24:29;99798.56;;;21.55;100.00
13968;BME280;39536;52.198;9.920;2023-07-29T07:26:56;99785.88;;;21.58;100.00
13968;BME280;39536;52.198;9.920;2023-07-29T07:29:23;99791.16;;;21.68;100.00
13968;BME280;39536;52.198;9.920;2023-07-29T07:31:51;99785.31;;;21.55;100.00
13968;BME280;39536;52.198;9.920;2023-07-29T07:34:18;99792.03;;;21.59;100.00
13968;BME280;39536;52.198;9.920;2023-07-29T07:36:45;99793.81;;;21.49;100.00
13968;BME280;39536;52.198;9.920;2023-07-29T07:39:14;99787.69;;;21.58;100.00
13968;BME280;39536;52.198;9.920;2023-07-29T07:41:41;99789.66;;;21.65;100.00
13968;BME280;39536;52.198;9.920;2023-07-29T07:44:08;99785.72;;;21.79;100.00
13968;BME280;39536;52.198;9.920;2023-07-29T07:46:36;99784.63;;;21.82;100.00
13968;BME280;39536;52.198;9.920;2023-07-29T07:49:02;99782.81;;;21.82;100.00
13968;BME280;39536;52.198;9.920;2023-07-29T07:51:29;99784.34;;;21.75;100.00
13968;BME280;39536;52.198;9.920;2023-07-29T07:53:56;99776.69;;;21.72;100.00
13968;BME280;39536;52.198;9.920;2023-07-29T07:56:24;99772.50;;;21.70;100.00
13968;BME280;39536;52.198;9.920;2023-07-29T07:58:50;99772.34;;;21.81;100.00
13968;BME280;39536;52.198;9.920;2023-07-29T08:01:17;99768.84;;;21.90;100.00
13968;BME280;39536;52.198;9.920;2023-07-29T08:03:43;99763.25;;;21.93;100.00
13968;BME280;39536;52.198;9.920;2023-07-29T08:06:10;99764.19;;;22.11;100.00
13968;BME280;39536;52.198;9.920;2023-07-29T08:08:37;99763.34;;;22.21;100.00
13968;BME280;39536;52.198;9.920;2023-07-29T08:11:03;99761.66;;;22.29;100.00
13968;BME280;39536;52.198;9.920;2023-07-29T08:13:31;99751.13;;;22.47;100.00
13968;BME280;39536;52.198;9.920;2023-07-29T08:15:58;99759.31;;;22.26;100.00
13968;BME280;39536;52.198;9.920;2023-07-29T08:18:25;99758.13;;;22.39;100.00
13968;BME280;39536;52.198;9.920;2023-07-29T08:20:53;99758.34;;;22.18;100.00
13968;BME280;39536;52.198;9.920;2023-07-29T08:23:20;99758.06;;;22.21;100.00
13968;BME280;39536;52.198;9.920;2023-07-29T08:25:52;99769.03;;;22.35;100.00
13968;BME280;39536;52.198;9.920;2023-07-29T08:28:18;99765.47;;;22.07;100.00
13968;BME280;39536;52.198;9.920;2023-07-29T08:30:47;99762.09;;;22.15;100.00
13968;BME280;39536;52.198;9.920;2023-07-29T08:33:14;99757.50;;;22.17;100.00
13968;BME280;39536;52.198;9.920;2023-07-29T08:35:40;99765.88;;;22.22;100.00
13968;BME280;39536;52.198;9.920;2023-07-29T08:38:07;99765.34;;;22.09;100.00
13968;BME280;39536;52.198;9.920;2023-07-29T08:40:35;99775.56;;;21.84;100.00
13968;BME280;39536;52.198;9.920;2023-07-29T08:43:04;99781.13;;;21.81;100.00
13968;BME280;39536;52.198;9.920;2023-07-29T08:45:34;99787.53;;;21.88;100.00
13968;BME280;39536;52.198;9.920;2023-07-29T08:48:07;99781.41;;;21.88;100.00
13968;BME280;39536;52.198;9.920;2023-07-29T08:50:35;99772.75;;;21.86;100.00
13968;BME280;39536;52.198;9.920;2023-07-29T08:53:04;99777.78;;;21.79;100.00
13968;BME280;39536;52.198;9.920;2023-07-29T08:55:31;99771.94;;;21.66;100.00
13968;BME280;39536;52.198;9.920;2023-07-29T08:57:59;99773.16;;;21.62;100.00
13968;BME280;39536;52.198;9.920;2023-07-29T09:00:28;99786.84;;;21.57;100.00
13968;BME280;39536;52.198;9.920;2023-07-29T09:02:54;99786.72;;;21.68;100.00
13968;BME280;39536;52.198;9.920;2023-07-29T09:05:24;99785.31;;;21.74;100.00
13968;BME280;39536;52.198;9.920;2023-07-29T09:07:51;99787.00;;;21.75;100.00
13968;BME280;39536;52.198;9.920;2023-07-29T09:10:21;99781.69;;;21.85;100.00
13968;BME280;39536;52.198;9.920;2023-07-29T09:12:49;99771.94;;;21.66;100.00
13968;BME280;39536;52.198;9.920;2023-07-29T09:15:26;99773.59;;;21.67;100.00
13968;BME280;39536;52.198;9.920;2023-07-29T09:17:53;99768.03;;;21.60;100.00
13968;BME280;39536;52.198;9.920;2023-07-29T09:20:24;99761.59;;;21.73;100.00
13968;BME280;39536;52.198;9.920;2023-07-29T09:22:53;99765.25;;;21.72;100.00
13968;BME280;39536;52.198;9.920;2023-07-29T09:25:23;99764.38;;;22.00;100.00
13968;BME280;39536;52.198;9.920;2023-07-29T09:27:50;99763.13;;;21.95;100.00
13968;BME280;39536;52.198;9.920;2023-07-29T09:30:17;99764.22;;;22.02;100.00
13968;BME280;39536;52.198;9.920;2023-07-29T09:32:43;99761.44;;;22.03;100.00
13968;BME280;39536;52.198;9.920;2023-07-29T09:35:11;99770.19;;;22.23;100.00
13968;BME280;39536;52.198;9.920;2023-07-29T09:37:39;99757.28;;;22.48;100.00
13968;BME280;39536;52.198;9.920;2023-07-29T09:40:07;99766.44;;;22.63;100.00
13968;BME280;39536;52.198;9.920;2023-07-29T09:42:39;99761.31;;;22.79;100.00
13968;BME280;39536;52.198;9.920;2023-07-29T09:45:06;99755.38;;;22.95;100.00
13968;BME280;39536;52.198;9.920;2023-07-29T09:47:33;99757.56;;;23.10;100.00
13968;BME280;39536;52.198;9.920;2023-07-29T09:50:00;99755.25;;;22.97;100.00
13968;BME280;39536;52.198;9.920;2023-07-29T09:52:27;99742.03;;;23.05;100.00
13968;BME280;39536;52.198;9.920;2023-07-29T09:54:55;99753.47;;;22.88;100.00
13968;BME280;39536;52.198;9.920;2023-07-29T09:57:22;99746.03;;;22.91;100.00
13968;BME280;39536;52.198;9.920;2023-07-29T09:59:55;99756.59;;;22.73;100.00
13968;BME280;39536;52.198;9.920;2023-07-29T10:02:22;99759.06;;;22.85;100.00
13968;BME280;39536;52.198;9.920;2023-07-29T10:04:51;99756.53;;;22.83;100.00
13968;BME280;39536;52.198;9.920;2023-07-29T10:07:18;99756.84;;;22.80;100.00
13968;BME280;39536;52.198;9.920;2023-07-29T10:09:46;99758.88;;;22.68;100.00
13968;BME280;39536;52.198;9.920;2023-07-29T10:12:14;99756.31;;;22.76;100.00
13968;BME280;39536;52.198;9.920;2023-07-29T10:14:42;99750.88;;;23.23;100.00
13968;BME280;39536;52.198;9.920;2023-07-29T10:17:09;99744.97;;;23.65;100.00
13968;BME280;39536;52.198;9.920;2023-07-29T10:19:36;99745.91;;;23.64;100.00
13968;BME280;39536;52.198;9.920;2023-07-29T10:22:04;99729.13;;;23.64;100.00
13968;BME280;39536;52.198;9.920;2023-07-29T10:24:33;99745.09;;;23.82;100.00
13968;BME280;39536;52.198;9.920;2023-07-29T10:27:00;99739.66;;;24.09;100.00
13968;BME280;39536;52.198;9.920;2023-07-29T10:29:31;99738.69;;;24.45;100.00
13968;BME280;39536;52.198;9.920;2023-07-29T10:32:01;99728.25;;;24.51;100.00
13968;BME280;39536;52.198;9.920;2023-07-29T10:34:29;99734.81;;;24.73;100.00
13968;BME280;39536;52.198;9.920;2023-07-29T10:36:56;99745.16;;;24.76;100.00
13968;BME280;39536;52.198;9.920;2023-07-29T10:39:24;99735.75;;;24.30;100.00
13968;BME280;39536;52.198;9.920;2023-07-29T10:41:55;99734.72;;;24.23;100.00
13968;BME280;39536;52.198;9.920;2023-07-29T10:44:49;99733.28;;;24.02;100.00
13968;BME280;39536;52.198;9.920;2023-07-29T10:47:18;99732.28;;;24.03;100.00
13968;BME280;39536;52.198;9.920;2023-07-29T10:49:48;99743.19;;;24.18;100.00
13968;BME280;39536;52.198;9.920;2023-07-29T10:52:16;99733.56;;;24.43;100.00
13968;BME280;39536;52.198;9.920;2023-07-29T10:54:43;99724.59;;;24.26;100.00
13968;BME280;39536;52.198;9.920;2023-07-29T10:57:13;99718.63;;;24.32;100.00
13968;BME280;39536;52.198;9.920;2023-07-29T10:59:41;99715.63;;;24.53;100.00
13968;BME280;39536;52.198;9.920;2023-07-29T11:02:17;99713.66;;;24.63;100.00
13968;BME280;39536;52.198;9.920;2023-07-29T11:04:49;99708.31;;;24.55;100.00
13968;BME280;39536;52.198;9.920;2023-07-29T11:07:24;99708.59;;;25.03;100.00
13968;BME280;39536;52.198;9.920;2023-07-29T11:09:56;99715.84;;;25.19;100.00
13968;BME280;39536;52.198;9.920;2023-07-29T11:12:43;99713.09;;;24.43;100.00
13968;BME280;39536;52.198;9.920;2023-07-29T11:15:16;99700.63;;;24.18;100.00
13968;BME280;39536;52.198;9.920;2023-07-29T11:17:46;99730.66;;;23.66;100.00
13968;BME280;39536;52.198;9.920;2023-07-29T11:20:14;99721.41;;;23.52;100.00
13968;BME280;39536;52.198;9.920;2023-07-29T11:22:41;99724.50;;;23.66;100.00
13968;BME280;39536;52.198;9.920;2023-07-29T11:25:09;99719.09;;;23.93;100.00
13968;BME280;39536;52.198;9.920;2023-07-29T11:27:37;99716.63;;;23.74;100.00
13968;BME280;39536;52.198;9.920;2023-07-29T11:30:05;99724.31;;;24.03;100.00
13968;BME280;39536;52.198;9.920;2023-07-29T11:32:34;99713.50;;;24.31;100.00
13968;BME280;39536;52.198;9.920;2023-07-29T11:35:07;99727.66;;;24.65;100.00
13968;BME280;39536;52.198;9.920;2023-07-29T11:37:36;99719.16;;;24.36;100.00
13968;BME280;39536;52.198;9.920;2023-07-29T11:40:03;99714.19;;;24.75;100.00
13968;BME280;39536;52.198;9.920;2023-07-29T11:42:31;99726.72;;;24.83;100.00
13968;BME280;39536;52.198;9.920;2023-07-29T11:44:58;99731.59;;;25.04;100.00
13968;BME280;39536;52.198;9.920;2023-07-29T11:47:25;99703.75;;;24.98;100.00
13968;BME280;39536;52.198;9.920;2023-07-29T11:49:52;99730.53;;;24.88;100.00
13968;BME280;39536;52.198;9.920;2023-07-29T11:52:20;99729.22;;;24.84;100.00
13968;BME280;39536;52.198;9.920;2023-07-29T11:54:48;99729.72;;;24.88;100.00
13968;BME280;39536;52.198;9.920;2023-07-29T11:57:17;99727.09;;;24.96;100.00
13968;BME280;39536;52.198;9.920;2023-07-29T11:59:45;99743.34;;;24.77;100.00
13968;BME280;39536;52.198;9.920;2023-07-29T12:02:14;99750.53;;;24.84;100.00
13968;BME280;39536;52.198;9.920;2023-07-29T12:04:41;99742.72;;;24.83;100.00
13968;BME280;39536;52.198;9.920;2023-07-29T12:07:09;99756.03;;;24.91;100.00
13968;BME280;39536;52.198;9.920;2023-07-29T12:09:38;99741.09;;;24.56;100.00
13968;BME280;39536;52.198;9.920;2023-07-29T12:12:06;99755.44;;;25.05;100.00
13968;BME280;39536;52.198;9.920;2023-07-29T12:14:33;99744.97;;;25.20;100.00
13968;BME280;39536;52.198;9.920;2023-07-29T12:17:01;99754.00;;;25.35;100.00
13968;BME280;39536;52.198;9.920;2023-07-29T12:19:31;99747.19;;;25.33;100.00
13968;BME280;39536;52.198;9.920;2023-07-29T12:21:59;99740.84;;;25.34;100.00
13968;BME280;39536;52.198;9.920;2023-07-29T12:24:26;99761.34;;;25.33;100.00
13968;BME280;39536;52.198;9.920;2023-07-29T12:26:54;99729.16;;;25.35;100.00
13968;BME280;39536;52.198;9.920;2023-07-29T12:29:20;99752.00;;;25.21;100.00
13968;BME280;39536;52.198;9.920;2023-07-29T12:31:47;99734.16;;;25.22;100.00
13968;BME280;39536;52.198;9.920;2023-07-29T12:34:17;99740.66;;;25.19;100.00
13968;BME280;39536;52.198;9.920;2023-07-29T12:36:45;99739.66;;;25.28;100.00
13968;BME280;39536;52.198;9.920;2023-07-29T12:39:19;99732.19;;;25.24;100.00
13968;BME280;39536;52.198;9.920;2023-07-29T12:41:49;99748.31;;;25.22;98.88
13968;BME280;39536;52.198;9.920;2023-07-29T12:44:17;99739.00;;;25.51;100.00
13968;BME280;39536;52.198;9.920;2023-07-29T12:46:44;99738.03;;;25.52;98.46
13968;BME280;39536;52.198;9.920;2023-07-29T12:49:10;99756.16;;;25.24;99.75
13968;BME280;39536;52.198;9.920;2023-07-29T12:51:37;99737.31;;;25.25;97.40
13968;BME280;39536;52.198;9.920;2023-07-29T12:54:04;99752.91;;;24.96;98.76